createdAt,value
2022-08-23T00:02:29.892Z,100471.56
2022-08-23T00:05:08.033Z,100482.75
2022-08-23T00:07:39.763Z,100472.78
2022-08-23T00:10:12.635Z,100480.75
2022-08-23T00:12:43.809Z,100484.31
2022-08-23T00:15:17.679Z,100486.31
2022-08-23T00:17:46.873Z,100490.28
2022-08-23T00:20:19.917Z,100487.09
2022-08-23T00:22:49.202Z,100491.09
2022-08-23T00:25:20.430Z,100479.94
2022-08-23T00:27:51.118Z,100483.94
2022-08-23T00:30:20.678Z,100491.94
2022-08-23T00:32:51.728Z,100485.09
2022-08-23T00:35:27.505Z,100479.16
2022-08-23T00:38:32.903Z,100485.09
2022-08-23T00:40:52.843Z,100488.69
2022-08-23T00:43:47.921Z,100486.34
2022-08-23T00:46:49.544Z,100489.50
2022-08-23T00:49:19.742Z,100484.31
2022-08-23T00:51:57.696Z,100469.63
2022-08-23T00:54:29.989Z,100479.16
2022-08-23T00:57:04.940Z,100470.81
2022-08-23T00:59:35.895Z,100472.00
2022-08-23T01:02:08.834Z,100464.03
2022-08-23T01:04:44.574Z,100469.63
2022-08-23T01:07:21.262Z,100478.78
2022-08-23T01:09:54.150Z,100471.22
2022-08-23T01:12:33.108Z,100461.69
2022-08-23T01:15:12.742Z,100462.06
2022-08-23T01:17:47.901Z,100455.69
2022-08-23T01:20:21.504Z,100461.25
2022-08-23T01:23:01.214Z,100455.69
2022-08-23T01:25:35.106Z,100463.28
2022-08-23T01:28:04.904Z,100457.31
2022-08-23T01:30:36.565Z,100454.13
2022-08-23T01:33:08.493Z,100453.31
2022-08-23T01:35:44.434Z,100432.25
2022-08-23T01:38:15.445Z,100456.50
2022-08-23T01:40:47.436Z,100452.91
2022-08-23T01:43:19.867Z,100435.78
2022-08-23T01:45:52.684Z,100450.50
2022-08-23T01:48:25.670Z,100470.41
2022-08-23T01:50:55.089Z,100466.81
2022-08-23T01:53:25.359Z,100468.00
2022-08-23T01:55:56.130Z,100471.97
2022-08-23T01:58:26.901Z,100474.75
2022-08-23T02:00:56.469Z,100471.94
2022-08-23T02:03:26.235Z,100470.31
2022-08-23T02:05:55.565Z,100481.44
2022-08-23T02:08:42.441Z,100478.66
2022-08-23T02:11:16.290Z,100482.19
2022-08-23T02:13:49.377Z,100465.00
2022-08-23T02:16:25.591Z,100473.72
2022-08-23T02:18:59.175Z,100482.06
2022-08-23T02:21:31.544Z,100485.22
2022-08-23T02:24:04.333Z,100478.41
2022-08-23T02:26:37.014Z,100490.69
2022-08-23T02:29:08.052Z,100494.16
2022-08-23T02:31:37.916Z,100489.03
2022-08-23T02:34:07.796Z,100487.44
2022-08-23T02:36:38.848Z,100477.13
2022-08-23T02:39:09.610Z,100471.47
2022-08-23T02:41:41.294Z,100456.75
2022-08-23T02:44:13.522Z,100461.91
2022-08-23T02:46:44.113Z,100466.72
2022-08-23T02:49:14.161Z,100447.94
2022-08-23T02:51:44.088Z,100467.09
2022-08-23T02:54:13.729Z,100470.63
2022-08-23T02:56:44.280Z,100479.38
2022-08-23T02:59:13.580Z,100477.34
2022-08-23T03:01:42.902Z,100470.16
2022-08-23T03:04:22.606Z,100482.09
2022-08-23T03:06:51.891Z,100487.16
2022-08-23T03:09:22.790Z,100486.38
2022-08-23T03:11:53.474Z,100488.69
2022-08-23T03:14:24.778Z,100489.47
2022-08-23T03:16:54.465Z,100486.25
2022-08-23T03:19:27.816Z,100497.72
2022-08-23T03:21:57.284Z,100490.91
2022-08-23T03:24:27.283Z,100492.50
2022-08-23T03:26:57.990Z,100485.63
2022-08-23T03:29:27.163Z,100490.00
2022-08-23T03:32:05.303Z,100492.75
2022-08-23T03:34:38.550Z,100489.19
2022-08-23T03:37:10.520Z,100489.97
2022-08-23T03:39:40.332Z,100489.13
2022-08-23T03:42:12.145Z,100470.81
2022-08-23T03:44:41.407Z,100487.03
2022-08-23T03:47:10.760Z,100492.59
2022-08-23T03:49:44.135Z,100483.47
2022-08-23T03:52:13.466Z,100484.28
2022-08-23T03:54:42.660Z,100473.09
2022-08-23T03:57:15.832Z,100484.19
2022-08-23T03:59:45.460Z,100481.81
2022-08-23T04:02:14.798Z,100480.25
2022-08-23T04:04:44.110Z,100472.69
2022-08-23T04:07:32.026Z,100490.56
2022-08-23T04:10:01.447Z,100484.59
2022-08-23T04:12:38.374Z,100488.91
2022-08-23T04:15:14.866Z,100497.75
2022-08-23T04:17:44.539Z,100498.47
2022-08-23T04:20:14.120Z,100488.16
2022-08-23T04:22:54.712Z,100488.06
2022-08-23T04:25:33.809Z,100479.69
2022-08-23T04:28:06.877Z,100486.91
2022-08-23T04:30:36.826Z,100484.13
2022-08-23T04:33:11.283Z,100485.72
2022-08-23T04:35:42.919Z,100495.22
2022-08-23T04:38:24.518Z,100488.81
2022-08-23T04:41:15.558Z,100464.88
2022-08-23T04:43:49.008Z,100474.88
2022-08-23T04:46:18.508Z,100495.22
2022-08-23T04:48:50.098Z,100484.44
2022-08-23T04:51:22.331Z,100490.44
2022-08-23T04:53:52.310Z,100507.50
2022-08-23T04:56:43.033Z,100495.88
2022-08-23T04:59:15.591Z,100497.41
2022-08-23T05:01:47.176Z,100506.53
2022-08-23T05:04:16.821Z,100492.59
2022-08-23T05:06:46.701Z,100503.75
2022-08-23T05:09:20.338Z,100503.31
2022-08-23T05:11:51.270Z,100509.28
2022-08-23T05:14:22.538Z,100506.09
2022-08-23T05:16:51.926Z,100504.81
2022-08-23T05:19:21.094Z,100507.63
2022-08-23T05:21:55.071Z,100522.69
2022-08-23T05:24:30.001Z,100513.84
2022-08-23T05:26:59.204Z,100521.00
2022-08-23T05:29:30.286Z,100526.91
2022-08-23T05:31:59.625Z,100532.09
2022-08-23T05:34:29.172Z,100534.97
2022-08-23T05:37:00.751Z,100535.31
2022-08-23T05:39:36.882Z,100536.94
2022-08-23T05:42:14.369Z,100534.97
2022-08-23T05:44:51.236Z,100548.09
2022-08-23T05:47:24.668Z,100535.06
2022-08-23T05:50:13.564Z,100547.84
2022-08-23T05:52:45.839Z,100555.44
2022-08-23T05:55:17.637Z,100555.44
2022-08-23T05:57:56.905Z,100563.75
2022-08-23T06:00:38.108Z,100544.56
2022-08-23T06:03:10.978Z,100571.28
2022-08-23T06:05:42.249Z,100550.53
2022-08-23T06:08:13.264Z,100560.19
2022-08-23T06:10:42.808Z,100572.59
2022-08-23T06:13:25.492Z,100571.44
2022-08-23T06:15:57.500Z,100581.03
2022-08-23T06:18:28.009Z,100576.63
2022-08-23T06:21:08.354Z,100581.44
2022-08-23T06:23:49.710Z,100576.22
2022-08-23T06:26:22.842Z,100593.81
2022-08-23T06:28:57.612Z,100578.25
2022-08-23T06:31:49.037Z,100581.44
2022-08-23T06:34:33.642Z,100598.59
2022-08-23T06:37:12.905Z,100590.19
2022-08-23T06:40:00.771Z,100596.22
2022-08-23T06:42:50.412Z,100599.09
2022-08-23T06:45:33.880Z,100603.50
2022-08-23T06:48:11.085Z,100609.09
2022-08-23T06:50:47.833Z,100586.00
2022-08-23T06:53:41.779Z,100598.06
2022-08-23T06:56:32.964Z,100600.91
2022-08-23T06:59:12.553Z,100603.84
2022-08-23T07:02:04.164Z,100614.59
2022-08-23T07:04:54.251Z,100607.19
2022-08-23T07:07:41.319Z,100610.38
2022-08-23T07:10:16.812Z,100606.47
2022-08-23T07:12:46.267Z,100616.00
2022-08-23T07:15:15.944Z,100618.78
2022-08-23T07:17:47.311Z,100618.00
2022-08-23T07:20:18.264Z,100619.59
2022-08-23T07:22:50.495Z,100606.34
2022-08-23T07:25:22.116Z,100619.97
2022-08-23T07:27:56.564Z,100625.09
2022-08-23T07:30:26.071Z,100628.72
2022-08-23T07:33:01.269Z,100638.25
2022-08-23T07:35:38.178Z,100638.72
2022-08-23T07:38:15.543Z,100641.53
2022-08-23T07:40:53.929Z,100641.97
2022-08-23T07:43:24.095Z,100624.75
2022-08-23T07:45:54.452Z,100650.19
2022-08-23T07:48:50.160Z,100647.00
2022-08-23T07:51:22.111Z,100644.53
2022-08-23T07:53:54.161Z,100651.75
2022-08-23T07:56:25.185Z,100654.84
2022-08-23T07:59:02.623Z,100653.66
2022-08-23T08:01:54.821Z,100658.81
2022-08-23T08:04:26.422Z,100646.53
2022-08-23T08:07:17.743Z,100668.41
2022-08-23T08:09:48.105Z,100673.97
2022-08-23T08:12:19.029Z,100666.44
2022-08-23T08:14:52.210Z,100667.66
2022-08-23T08:17:27.494Z,100669.81
2022-08-23T08:20:08.226Z,100678.34
2022-08-23T08:22:58.488Z,100677.66
2022-08-23T08:25:48.837Z,100677.59
2022-08-23T08:28:20.888Z,100673.28
2022-08-23T08:30:50.323Z,100680.13
2022-08-23T08:33:19.506Z,100683.81
2022-08-23T08:35:57.798Z,100683.00
2022-08-23T08:38:31.836Z,100681.06
2022-08-23T08:41:16.703Z,100675.50
2022-08-23T08:44:04.581Z,100677.84
2022-08-23T08:46:47.066Z,100661.88
2022-08-23T08:49:26.544Z,100689.03
2022-08-23T08:52:03.428Z,100693.94
2022-08-23T08:54:34.477Z,100692.03
2022-08-23T08:57:04.805Z,100681.44
2022-08-23T08:59:53.282Z,100681.16
2022-08-23T09:02:33.864Z,100684.78
2022-08-23T09:05:13.016Z,100684.75
2022-08-23T09:07:56.699Z,100690.69
2022-08-23T09:10:59.071Z,100694.22
2022-08-23T09:13:56.889Z,100699.03
2022-08-23T09:16:40.821Z,100695.81
2022-08-23T09:19:11.462Z,100700.22
2022-08-23T09:21:47.692Z,100706.66
2022-08-23T09:24:17.848Z,100697.50
2022-08-23T09:26:59.220Z,100701.91
2022-08-23T09:29:33.415Z,100707.91
2022-08-23T09:32:06.665Z,100707.88
2022-08-23T09:34:44.526Z,100711.88
2022-08-23T09:37:22.290Z,100688.72
2022-08-23T09:40:13.916Z,100703.88
2022-08-23T09:42:45.107Z,100707.00
2022-08-23T09:45:35.146Z,100703.84
2022-08-23T09:48:08.304Z,100693.44
2022-08-23T09:50:54.665Z,100705.44
2022-08-23T09:53:28.302Z,100699.03
2022-08-23T09:56:11.228Z,100700.94
2022-08-23T09:58:47.019Z,100700.50
2022-08-23T10:01:27.000Z,100705.31
2022-08-23T10:04:14.602Z,100704.63
2022-08-23T10:06:46.776Z,100705.31
2022-08-23T10:09:25.875Z,100691.72
2022-08-23T10:11:57.287Z,100699.91
2022-08-23T10:14:33.836Z,100698.50
2022-08-23T10:17:15.865Z,100701.22
2022-08-23T10:19:54.785Z,100700.72
2022-08-23T10:22:27.689Z,100710.22
2022-08-23T10:25:27.561Z,100710.91
2022-08-23T10:28:27.619Z,100706.88
2022-08-23T10:31:04.905Z,100718.38
2022-08-23T10:33:46.723Z,100699.75
2022-08-23T10:36:24.145Z,100707.56
2022-08-23T10:39:03.729Z,100687.78
2022-08-23T10:41:52.327Z,100698.88
2022-08-23T10:44:33.321Z,100703.13
2022-08-23T10:47:19.805Z,100695.66
2022-08-23T10:49:53.533Z,100696.50
2022-08-23T10:52:34.475Z,100719.56
2022-08-23T10:55:17.493Z,100711.16
2022-08-23T10:57:49.839Z,100716.47
2022-08-23T11:00:26.815Z,100707.66
2022-08-23T11:03:10.199Z,100711.03
2022-08-23T11:05:40.897Z,100710.94
2022-08-23T11:08:36.764Z,100694.63
2022-08-23T11:11:46.160Z,100709.25
2022-08-23T11:14:34.619Z,100718.53
2022-08-23T11:17:08.376Z,100713.34
2022-08-23T11:19:56.066Z,100712.53
2022-08-23T11:22:31.022Z,100726.66
2022-08-23T11:25:04.131Z,100720.69
2022-08-23T11:27:42.055Z,100718.88
2022-08-23T11:30:50.114Z,100720.00
2022-08-23T11:33:44.319Z,100720.38
2022-08-23T11:36:23.343Z,100714.31
2022-08-23T11:39:19.619Z,100711.50
2022-08-23T11:42:07.136Z,100712.09
2022-08-23T11:44:47.729Z,100696.69
2022-08-23T11:47:28.774Z,100698.44
2022-08-23T11:50:26.949Z,100699.72
2022-08-23T11:53:32.429Z,100695.28
2022-08-23T11:56:46.163Z,100702.25
2022-08-23T11:59:41.791Z,100697.72
2022-08-23T12:03:03.296Z,100706.63
2022-08-23T12:06:09.474Z,100702.00
2022-08-23T12:08:56.981Z,100700.56
2022-08-23T12:11:27.308Z,100687.72
2022-08-23T12:14:02.257Z,100691.38
2022-08-23T12:16:37.888Z,100695.75
2022-08-23T12:19:19.986Z,100692.97
2022-08-23T12:21:53.380Z,100692.53
2022-08-23T12:24:32.905Z,100714.63
2022-08-23T12:27:15.328Z,100709.09
2022-08-23T12:29:54.098Z,100710.78
2022-08-23T12:32:34.112Z,100716.84
2022-08-23T12:35:26.601Z,100706.19
2022-08-23T12:38:05.671Z,100701.75
2022-08-23T12:40:42.537Z,100723.69
2022-08-23T12:43:22.787Z,100724.31
2022-08-23T12:45:57.279Z,100713.94
2022-08-23T12:48:30.406Z,100703.44
2022-08-23T12:51:04.122Z,100712.63
2022-08-23T12:53:41.381Z,100716.59
2022-08-23T12:56:26.778Z,100715.00
2022-08-23T12:59:06.907Z,100717.38
2022-08-23T13:01:40.161Z,100719.88
2022-08-23T13:04:13.678Z,100717.22
2022-08-23T13:06:49.536Z,100719.34
2022-08-23T13:09:24.517Z,100718.03
2022-08-23T13:11:56.080Z,100718.06
2022-08-23T13:14:34.562Z,100669.75
2022-08-23T13:17:21.489Z,100708.41
2022-08-23T13:19:56.288Z,100713.75
2022-08-23T13:22:27.248Z,100712.31
2022-08-23T13:28:02.581Z,100723.00
2022-08-23T13:30:36.239Z,100734.75
2022-08-23T13:33:25.119Z,100721.22
2022-08-23T13:36:13.073Z,100726.22
2022-08-23T13:38:44.444Z,100733.03
2022-08-23T13:41:30.803Z,100727.94
2022-08-23T13:44:08.111Z,100722.63
2022-08-23T13:46:46.869Z,100728.91
2022-08-23T13:49:21.435Z,100725.31
2022-08-23T13:54:59.385Z,100723.66
2022-08-23T13:57:30.286Z,100728.63
2022-08-23T14:00:02.406Z,100708.44
2022-08-23T14:02:39.744Z,100731.13
2022-08-23T14:05:10.445Z,100726.22
2022-08-23T14:07:39.996Z,100719.13
2022-08-23T14:10:10.434Z,100718.19
2022-08-23T14:12:40.129Z,100705.41
2022-08-23T14:15:15.278Z,100726.28
2022-08-23T14:17:48.360Z,100717.50
2022-08-23T14:23:12.324Z,100703.47
2022-08-23T14:25:42.125Z,100712.47
2022-08-23T14:28:11.580Z,100702.56
2022-08-23T14:30:42.194Z,100705.69
2022-08-23T14:33:11.497Z,100714.69
2022-08-23T14:35:40.729Z,100709.25
2022-08-23T14:38:10.989Z,100704.66
2022-08-23T14:40:40.308Z,100708.59
2022-08-23T14:43:11.957Z,100705.13
2022-08-23T14:45:43.008Z,100712.03
2022-08-23T14:48:12.508Z,100709.69
2022-08-23T14:50:42.414Z,100718.84
2022-08-23T14:53:13.428Z,100700.88
2022-08-23T14:55:42.999Z,100720.06
2022-08-23T14:58:12.213Z,100720.88
2022-08-23T15:00:45.057Z,100702.59
2022-08-23T15:03:20.288Z,100705.78
2022-08-23T15:05:49.712Z,100699.97
2022-08-23T15:08:19.112Z,100703.81
2022-08-23T15:10:50.439Z,100700.22
2022-08-23T15:13:28.425Z,100696.00
2022-08-23T15:16:02.115Z,100696.84
2022-08-23T15:18:34.300Z,100701.09
2022-08-23T15:21:03.906Z,100694.50
2022-08-23T15:23:33.522Z,100703.09
2022-08-23T15:26:02.767Z,100702.59
2022-08-23T15:28:32.531Z,100698.69
2022-08-23T15:31:03.256Z,100693.19
2022-08-23T15:33:33.755Z,100677.44
2022-08-23T15:36:03.565Z,100697.91
2022-08-23T15:38:33.170Z,100697.09
2022-08-23T15:41:02.519Z,100687.75
2022-08-23T15:43:34.204Z,100678.19
2022-08-23T15:46:09.515Z,100664.06
2022-08-23T15:48:45.625Z,100665.94
2022-08-23T15:51:15.515Z,100685.06
2022-08-23T15:53:45.354Z,100678.88
2022-08-23T15:56:19.796Z,100670.84
2022-08-23T15:58:50.386Z,100677.22
2022-08-23T16:01:24.622Z,100669.81
2022-08-23T16:03:54.166Z,100667.84
2022-08-23T16:06:23.597Z,100653.84
2022-08-23T16:08:54.462Z,100670.84
2022-08-23T16:11:24.307Z,100678.47
2022-08-23T16:13:55.835Z,100682.00
2022-08-23T16:16:31.073Z,100667.72
2022-08-23T16:19:02.090Z,100677.06
2022-08-23T16:21:35.922Z,100624.59
2022-08-23T16:24:07.175Z,100670.03
2022-08-23T16:26:45.417Z,100666.94
2022-08-23T16:29:18.275Z,100656.81
2022-08-23T16:31:49.613Z,100662.00
2022-08-23T16:34:21.415Z,100665.16
2022-08-23T16:36:56.517Z,100660.50
2022-08-23T16:39:27.938Z,100651.28
2022-08-23T16:41:57.296Z,100672.28
2022-08-23T16:44:26.469Z,100662.41
2022-08-23T16:46:58.094Z,100656.09
2022-08-23T16:49:27.281Z,100651.81
2022-08-23T16:51:56.876Z,100648.69
2022-08-23T16:54:26.496Z,100659.53
2022-08-23T16:56:56.795Z,100660.88
2022-08-23T16:59:26.237Z,100645.75
2022-08-23T17:02:01.369Z,100664.03
2022-08-23T17:04:40.021Z,100663.28
2022-08-23T17:07:09.250Z,100673.31
2022-08-23T17:09:38.499Z,100664.94
2022-08-23T17:12:08.107Z,100673.34
2022-08-23T17:14:37.450Z,100673.44
2022-08-23T17:17:08.078Z,100668.34
2022-08-23T17:19:37.475Z,100676.75
2022-08-23T17:22:06.986Z,100669.97
2022-08-23T17:24:37.559Z,100680.38
2022-08-23T17:27:08.050Z,100677.69
2022-08-23T17:29:37.772Z,100661.25
2022-08-23T17:32:09.346Z,100672.09
2022-08-23T17:34:39.349Z,100680.09
2022-08-23T17:37:18.001Z,100669.13
2022-08-23T17:39:48.168Z,100629.31
2022-08-23T17:42:18.185Z,100674.00
2022-08-23T17:44:47.491Z,100661.66
2022-08-23T17:47:19.839Z,100634.72
2022-08-23T17:49:50.427Z,100670.25
2022-08-23T17:52:19.923Z,100648.53
2022-08-23T17:54:49.238Z,100667.38
2022-08-23T17:57:18.751Z,100674.13
2022-08-23T17:59:48.384Z,100661.06
2022-08-23T18:02:20.797Z,100668.97
2022-08-23T18:04:50.150Z,100670.97
2022-08-23T18:07:21.899Z,100661.09
2022-08-23T18:09:51.385Z,100686.31
2022-08-23T18:12:20.693Z,100685.28
2022-08-23T18:14:49.929Z,100684.50
2022-08-23T18:17:20.605Z,100676.88
2022-08-23T18:19:49.943Z,100672.88
2022-08-23T18:22:20.244Z,100676.53
2022-08-23T18:24:49.472Z,100678.59
2022-08-23T18:27:47.840Z,100683.16
2022-08-23T18:30:17.532Z,100672.84
2022-08-23T18:32:48.882Z,100674.13
2022-08-23T18:35:18.565Z,100694.50
2022-08-23T18:37:48.023Z,100672.19
2022-08-23T18:40:17.358Z,100695.31
2022-08-23T18:42:46.672Z,100693.72
2022-08-23T18:45:16.039Z,100680.59
2022-08-23T18:47:45.869Z,100691.78
2022-08-23T18:50:17.422Z,100679.78
2022-08-23T18:52:46.775Z,100688.19
2022-08-23T18:55:17.682Z,100681.03
2022-08-23T18:57:47.690Z,100686.28
2022-08-23T19:00:17.262Z,100677.13
2022-08-23T19:02:49.240Z,100683.50
2022-08-23T19:05:20.051Z,100685.09
2022-08-23T19:07:49.938Z,100688.31
2022-08-23T19:10:21.196Z,100694.72
2022-08-23T19:13:02.472Z,100697.59
2022-08-23T19:15:34.126Z,100685.28
2022-08-23T19:18:05.593Z,100704.41
2022-08-23T19:20:37.402Z,100712.03
2022-08-23T19:23:07.649Z,100678.16
2022-08-23T19:25:41.197Z,100695.28
2022-08-23T19:28:14.836Z,100701.31
2022-08-23T19:30:44.619Z,100707.31
2022-08-23T19:33:14.203Z,100704.94
2022-08-23T19:35:45.575Z,100699.41
2022-08-23T19:38:17.259Z,100711.34
2022-08-23T19:40:54.634Z,100707.44
2022-08-23T19:43:24.434Z,100699.84
2022-08-23T19:45:54.893Z,100708.22
2022-08-23T19:48:24.564Z,100710.22
2022-08-23T19:50:58.132Z,100699.44
2022-08-23T19:53:28.035Z,100709.41
2022-08-23T19:55:57.425Z,100721.00
2022-08-23T19:58:26.667Z,100724.22
2022-08-23T20:00:56.186Z,100723.41
2022-08-23T20:03:26.560Z,100725.03
2022-08-23T20:05:58.980Z,100726.22
2022-08-23T20:08:28.816Z,100719.03
2022-08-23T20:10:59.674Z,100724.22
2022-08-23T20:13:29.510Z,100724.22
2022-08-23T20:15:58.871Z,100732.59
2022-08-23T20:18:28.279Z,100715.84
2022-08-23T20:21:00.833Z,100685.56
2022-08-23T20:23:46.950Z,100727.03
2022-08-23T20:26:16.527Z,100717.44
2022-08-23T20:28:59.113Z,100717.03
2022-08-23T20:31:36.832Z,100708.69
2022-08-23T20:34:09.366Z,100705.50
2022-08-23T20:36:40.564Z,100720.63
2022-08-23T20:39:10.112Z,100693.94
2022-08-23T20:41:45.130Z,100713.84
2022-08-23T20:44:16.432Z,100729.00
2022-08-23T20:46:45.754Z,100725.44
2022-08-23T20:49:15.842Z,100740.97
2022-08-23T20:51:47.079Z,100731.41
2022-08-23T20:54:18.933Z,100721.84
2022-08-23T20:56:51.546Z,100708.69
2022-08-23T20:59:22.181Z,100720.66
2022-08-23T21:01:52.252Z,100730.22
2022-08-23T21:04:22.665Z,100731.78
2022-08-23T21:07:01.473Z,100721.84
2022-08-23T21:09:31.055Z,100732.59
2022-08-23T21:12:00.361Z,100726.22
2022-08-23T21:14:30.060Z,100715.44
2022-08-23T21:16:59.452Z,100719.84
2022-08-23T21:19:30.099Z,100716.63
2022-08-23T21:22:01.189Z,100723.41
2022-08-23T21:24:32.270Z,100705.41
2022-08-23T21:27:01.668Z,100712.59
2022-08-23T21:29:39.078Z,100713.00
2022-08-23T21:32:08.702Z,100708.16
2022-08-23T21:34:40.657Z,100716.16
2022-08-23T21:37:11.496Z,100713.34
2022-08-23T21:39:40.852Z,100685.50
2022-08-23T21:42:15.052Z,100679.88
2022-08-23T21:44:47.927Z,100695.78
2022-08-23T21:47:17.026Z,100701.41
2022-08-23T21:49:47.251Z,100696.19
2022-08-23T21:52:18.080Z,100689.44
2022-08-23T21:54:47.910Z,100695.38
2022-08-23T21:57:20.040Z,100689.81
2022-08-23T21:59:49.580Z,100675.84
2022-08-23T22:02:19.400Z,100687.41
2022-08-23T22:04:49.408Z,100673.09
2022-08-23T22:07:20.141Z,100684.22
2022-08-23T22:09:51.542Z,100679.84
2022-08-23T22:12:24.928Z,100667.88
2022-08-23T22:14:54.633Z,100672.72
2022-08-23T22:17:23.877Z,100667.13
2022-08-23T22:19:55.177Z,100660.34
2022-08-23T22:22:26.458Z,100658.78
2022-08-23T22:24:56.032Z,100669.94
2022-08-23T22:27:25.303Z,100670.34
2022-08-23T22:29:54.535Z,100660.78
2022-08-23T22:32:24.598Z,100650.81
2022-08-23T22:34:53.862Z,100667.16
2022-08-23T22:37:23.799Z,100660.78
2022-08-23T22:39:57.358Z,100661.59
2022-08-23T22:42:26.661Z,100664.38
2022-08-23T22:44:58.477Z,100656.81
2022-08-23T22:47:28.003Z,100651.25
2022-08-23T22:49:57.955Z,100652.41
2022-08-23T22:52:27.070Z,100642.84
2022-08-23T22:54:58.159Z,100644.81
2022-08-23T22:57:27.373Z,100643.25
2022-08-23T22:59:56.660Z,100628.91
2022-08-23T23:02:28.093Z,100640.84
2022-08-23T23:04:57.443Z,100630.47
2022-08-23T23:07:40.542Z,100622.88
2022-08-23T23:10:11.720Z,100629.19
2022-08-23T23:12:41.523Z,100635.47
2022-08-23T23:15:12.102Z,100631.00
2022-08-23T23:17:41.468Z,100630.19
2022-08-23T23:20:29.383Z,100629.34
2022-08-23T23:22:58.673Z,100635.59
2022-08-23T23:25:29.294Z,100635.06
2022-08-23T23:28:02.298Z,100629.44
2022-08-23T23:30:32.715Z,100634.44
2022-08-23T23:33:02.314Z,100626.72
2022-08-23T23:35:31.604Z,100625.41
2022-08-23T23:38:01.116Z,100644.34
2022-08-23T23:40:32.736Z,100645.38
2022-08-23T23:43:02.141Z,100643.28
2022-08-23T23:45:31.968Z,100639.94
2022-08-23T23:48:01.394Z,100645.38
2022-08-23T23:50:32.524Z,100643.59
2022-08-23T23:53:01.664Z,100637.53
2022-08-23T23:55:32.455Z,100640.88
2022-08-23T23:58:02.281Z,100645.22
